Time;durP1;ratioP1;P1;durP2;ratioP2;P2;SDS_P1;SDS_P2;PMS_P1;PMS_P2;Temp;Humidity;BMP_temperature;BMP_pressure;BME280_temperature;BME280_humidity;BME280_pressure;Samples;Min_cycle;Max_cycle;Signal;HPM_P1;HPM_P2
2023/01/27 00:00:50;;;;;;;21.92;10.13;;;;;;;0.29;100.00;98721.84;4533252;31;20099;-72
2023/01/27 00:03:18;;;;;;;23.38;10.15;;;;;;;0.27;100.00;98711.63;4533362;31;20095;-72
2023/01/27 00:05:45;;;;;;;19.58;9.80;;;;;;;0.28;100.00;98705.53;4533190;31;20151;-72
2023/01/27 00:08:13;;;;;;;26.60;9.55;;;;;;;0.25;100.00;98708.28;4533288;31;20442;-72
2023/01/27 00:10:41;;;;;;;24.23;10.93;;;;;;;0.29;100.00;98703.81;4533350;31;20123;-72
2023/01/27 00:13:27;;;;;;;21.15;8.98;;;;;;;0.30;100.00;98702.91;4532986;31;20150;-72
2023/01/27 00:15:55;;;;;;;23.65;10.27;;;;;;;0.28;100.00;98705.53;4533324;31;20099;-72
2023/01/27 00:18:22;;;;;;;18.45;9.02;;;;;;;0.20;100.00;98697.37;4533187;31;20091;-72
2023/01/27 00:26:21;;;;;;;18.52;9.50;;;;;;;0.21;100.00;98696.44;4516453;31;20143;-72
2023/01/27 00:28:49;;;;;;;19.98;9.18;;;;;;;0.29;100.00;98696.09;4517260;31;20119;-72
2023/01/27 00:34:10;;;;;;;22.90;9.32;;;;;;;0.26;100.00;98691.06;4517256;31;20114;-72
2023/01/27 00:36:40;;;;;;;19.73;9.20;;;;;;;0.26;100.00;98689.34;4517137;31;20462;-72
2023/01/27 00:39:09;;;;;;;23.52;10.45;;;;;;;0.33;100.00;98692.44;4516899;31;20151;-72
2023/01/27 00:41:37;;;;;;;29.42;11.15;;;;;;;0.34;100.00;98691.53;4517139;31;20096;-72
2023/01/27 00:44:05;;;;;;;26.35;10.40;;;;;;;0.30;100.00;98692.59;4516769;31;20104;-72
2023/01/27 00:46:33;;;;;;;18.87;7.72;;;;;;;0.29;100.00;98698.66;4517056;31;20115;-72
2023/01/27 00:49:00;;;;;;;24.02;9.48;;;;;;;0.33;100.00;98697.59;4517030;31;20096;-72
2023/01/27 00:51:29;;;;;;;26.50;9.48;;;;;;;0.32;100.00;98701.09;4517160;31;20092;-72
2023/01/27 00:53:58;;;;;;;24.48;10.75;;;;;;;0.44;100.00;98694.50;4517007;31;20095;-72
2023/01/27 00:56:26;;;;;;;30.58;11.60;;;;;;;0.40;100.00;98696.41;4516865;31;20091;-72
2023/01/27 00:58:54;;;;;;;42.88;14.48;;;;;;;0.41;100.00;98695.50;4516982;31;20095;-72
2023/01/27 01:01:22;;;;;;;39.40;14.35;;;;;;;0.44;100.00;98695.34;4516809;31;20381;-72
2023/01/27 01:03:49;;;;;;;41.75;14.55;;;;;;;0.41;100.00;98690.34;4516950;31;20111;-72
2023/01/27 01:06:18;;;;;;;34.35;14.18;;;;;;;0.45;100.00;98691.00;4516924;31;20108;-72
2023/01/27 01:08:47;;;;;;;24.63;10.18;;;;;;;0.50;100.00;98689.87;4516840;31;20076;-72
2023/01/27 01:11:15;;;;;;;21.50;8.98;;;;;;;0.46;100.00;98698.66;4531717;31;20164;-72
2023/01/27 01:13:44;;;;;;;18.25;8.73;;;;;;;0.49;100.00;98697.69;4532594;31;20134;-72
2023/01/27 01:16:18;;;;;;;22.42;9.20;;;;;;;0.58;100.00;98697.22;4532896;31;20117;-72
2023/01/27 01:18:45;;;;;;;20.95;8.88;;;;;;;0.39;100.00;98699.88;4532862;31;20599;-72
2023/01/27 01:21:12;;;;;;;18.73;8.60;;;;;;;0.10;100.00;98696.94;4532826;31;20111;-72
2023/01/27 01:23:42;;;;;;;19.25;9.30;;;;;;;0.20;100.00;98691.34;4532835;31;20103;-72
2023/01/27 01:26:10;;;;;;;19.80;8.60;;;;;;;0.15;100.00;98689.00;4532723;31;20094;-72
2023/01/27 01:28:38;;;;;;;20.73;8.70;;;;;;;0.08;100.00;98697.97;4533112;31;20117;-72
2023/01/27 01:31:06;;;;;;;17.45;8.60;;;;;;;0.07;100.00;98691.94;4532792;31;20119;-72
2023/01/27 01:33:34;;;;;;;18.35;7.75;;;;;;;0.01;100.00;98691.41;4531651;31;20168;-72
2023/01/27 01:36:11;;;;;;;17.75;8.18;;;;;;;0.03;100.00;98687.03;4533103;31;20502;-72
2023/01/27 01:38:39;;;;;;;25.88;9.23;;;;;;;-0.04;100.00;98678.75;4532740;31;20079;-72
2023/01/27 01:41:08;;;;;;;20.58;8.75;;;;;;;-0.01;100.00;98683.75;4532881;31;20125;-72
2023/01/27 01:43:35;;;;;;;19.23;9.18;;;;;;;-0.05;100.00;98684.81;4531141;31;20185;-72
2023/01/27 01:46:03;;;;;;;19.60;8.52;;;;;;;-0.03;100.00;98686.41;4532556;31;20083;-72
2023/01/27 01:48:41;;;;;;;19.75;8.60;;;;;;;-0.01;100.00;98688.91;4532733;31;20459;-72
2023/01/27 01:51:12;;;;;;;21.00;8.82;;;;;;;0.02;100.00;98683.63;4532778;31;20083;-72
2023/01/27 01:53:44;;;;;;;19.55;9.02;;;;;;;-0.08;100.00;98687.53;4533006;31;20092;-72
2023/01/27 01:56:36;;;;;;;15.10;7.22;;;;;;;-0.01;100.00;98686.34;4531318;31;20471;-72
2023/01/27 01:59:12;;;;;;;18.25;8.25;;;;;;;-0.01;100.00;98684.59;4531204;31;20492;-72
2023/01/27 02:01:39;;;;;;;15.43;7.70;;;;;;;0.02;100.00;98686.19;4532753;31;20114;-72
2023/01/27 02:04:12;;;;;;;18.00;8.27;;;;;;;0.07;100.00;98684.22;4532370;31;20092;-72
2023/01/27 02:07:03;;;;;;;23.65;8.38;;;;;;;0.09;100.00;98681.56;4532517;31;20127;-72
2023/01/27 02:09:31;;;;;;;20.45;8.82;;;;;;;0.10;100.00;98676.34;4527756;31;20091;-72
2023/01/27 02:11:59;;;;;;;26.00;9.30;;;;;;;0.06;100.00;98674.84;4516395;31;20114;-72
2023/01/27 02:14:26;;;;;;;20.75;8.95;;;;;;;0.01;100.00;98670.81;4516061;31;20087;-72
2023/01/27 02:16:54;;;;;;;23.02;8.90;;;;;;;-0.09;100.00;98667.81;4516372;31;20159;-72
2023/01/27 02:19:36;;;;;;;18.08;7.80;;;;;;;-0.10;100.00;98669.56;4514968;31;20100;-72
2023/01/27 02:22:05;;;;;;;22.45;8.20;;;;;;;-0.11;100.00;98662.75;4522538;31;20143;-72
2023/01/27 02:24:37;;;;;;;20.83;8.85;;;;;;;-0.17;100.00;98652.75;4530683;31;20103;-72
2023/01/27 02:27:04;;;;;;;19.02;8.35;;;;;;;-0.07;100.00;98645.44;4530814;31;20091;-72
2023/01/27 02:29:31;;;;;;;18.40;7.75;;;;;;;-0.07;100.00;98648.00;4530838;31;20482;-72
2023/01/27 02:31:58;;;;;;;21.00;7.50;;;;;;;-0.09;100.00;98642.06;4532360;31;20094;-72
2023/01/27 02:34:29;;;;;;;15.98;6.68;;;;;;;-0.17;100.00;98650.16;4532272;31;20096;-72
2023/01/27 02:37:00;;;;;;;19.60;8.23;;;;;;;-0.13;100.00;98640.59;4530714;31;20125;-72
2023/01/27 02:39:35;;;;;;;14.15;6.43;;;;;;;-0.21;100.00;98631.47;4532114;31;20071;-72
2023/01/27 02:42:05;;;;;;;16.65;7.87;;;;;;;-0.19;100.00;98634.78;4530655;31;20111;-72
2023/01/27 02:44:33;;;;;;;14.98;6.97;;;;;;;-0.28;100.00;98632.66;4530764;31;20100;-72
2023/01/27 02:47:01;;;;;;;17.08;6.72;;;;;;;-0.26;100.00;98619.72;4532143;31;20095;-72
2023/01/27 02:49:29;;;;;;;15.40;6.45;;;;;;;-0.26;100.00;98622.28;4532272;31;20154;-72
2023/01/27 02:51:56;;;;;;;15.50;6.78;;;;;;;-0.31;100.00;98617.38;4534372;31;20091;-72
2023/01/27 02:54:25;;;;;;;16.25;6.95;;;;;;;-0.29;100.00;98615.53;4534311;31;20099;-72
2023/01/27 02:56:53;;;;;;;15.35;6.80;;;;;;;-0.30;100.00;98624.19;4534041;31;20099;-72
2023/01/27 02:59:21;;;;;;;14.07;6.53;;;;;;;-0.33;100.00;98621.75;4534170;31;20113;-71
2023/01/27 03:01:49;;;;;;;18.90;6.25;;;;;;;-0.35;100.00;98618.41;4533881;31;20114;-72
2023/01/27 03:04:16;;;;;;;12.50;5.40;;;;;;;-0.42;100.00;98620.44;4533807;31;20083;-72
2023/01/27 03:06:43;;;;;;;14.30;7.00;;;;;;;-0.56;100.00;98623.66;4533681;31;20091;-72
2023/01/27 03:09:11;;;;;;;17.83;5.97;;;;;;;-0.59;100.00;98621.22;4533552;31;20095;-72
2023/01/27 03:19:56;;;;;;;11.23;5.28;;;;;;;-0.67;100.00;98618.16;4534089;31;20135;-72
2023/01/27 03:22:25;;;;;;;12.30;5.45;;;;;;;-0.60;100.00;98609.25;4533785;31;20432;-72
2023/01/27 03:24:52;;;;;;;14.02;6.18;;;;;;;-0.60;100.00;98601.53;4533977;31;20179;-72
2023/01/27 03:27:20;;;;;;;12.90;5.60;;;;;;;-0.51;100.00;98604.63;4533613;31;20154;-72
2023/01/27 03:29:56;;;;;;;13.20;6.22;;;;;;;-0.58;100.00;98602.31;4534179;31;20139;-72
2023/01/27 03:32:27;;;;;;;12.30;6.25;;;;;;;-0.63;100.00;98599.13;4533801;31;20118;-72
2023/01/27 03:35:02;;;;;;;13.62;6.12;;;;;;;-0.63;100.00;98599.13;4533880;31;20159;-72
2023/01/27 03:48:36;;;;;;;13.27;6.00;;;;;;;-0.65;100.00;98580.34;4534045;31;20154;-72
2023/01/27 03:51:05;;;;;;;11.10;5.87;;;;;;;-0.66;100.00;98583.00;4533443;31;20095;-72
2023/01/27 03:53:34;;;;;;;13.70;5.80;;;;;;;-0.69;100.00;98581.41;4533556;31;20432;-72
2023/01/27 03:56:02;;;;;;;11.25;5.40;;;;;;;-0.61;100.00;98581.84;4533334;31;20586;-72
2023/01/27 03:58:32;;;;;;;17.87;6.60;;;;;;;-0.62;100.00;98569.06;4533440;31;20110;-72
2023/01/27 04:01:05;;;;;;;11.15;4.87;;;;;;;-0.48;100.00;98569.28;4532642;31;20147;-72
2023/01/27 04:09:10;;;;;;;12.48;5.87;;;;;;;-0.40;100.00;98561.19;4533371;31;20079;-72
2023/01/27 04:11:56;;;;;;;10.00;5.22;;;;;;;-0.44;100.00;98557.06;4533337;31;20098;-72
2023/01/27 04:14:27;;;;;;;16.43;5.67;;;;;;;-0.48;100.00;98553.81;4533323;31;20194;-72
2023/01/27 04:17:00;;;;;;;13.85;5.75;;;;;;;-0.51;100.00;98553.16;4533555;31;20766;-72
2023/01/27 04:19:28;;;;;;;11.03;5.13;;;;;;;-0.55;100.00;98560.16;4533345;31;20572;-72
2023/01/27 04:21:58;;;;;;;15.02;6.00;;;;;;;-0.54;100.00;98564.41;4533112;31;20167;-72
2023/01/27 04:24:26;;;;;;;11.88;5.72;;;;;;;-0.57;100.00;98556.84;4533330;31;20096;-72
2023/01/27 04:27:00;;;;;;;11.82;4.97;;;;;;;-0.61;100.00;98556.12;4533290;31;20092;-72
2023/01/27 04:29:31;;;;;;;13.40;6.12;;;;;;;-0.58;100.00;98561.13;4533619;31;20095;-72
2023/01/27 04:31:58;;;;;;;13.00;5.87;;;;;;;-0.55;100.00;98555.03;4533238;31;20150;-72
2023/01/27 04:34:26;;;;;;;11.85;5.60;;;;;;;-0.58;100.00;98558.56;4533053;31;20079;-72
2023/01/27 04:36:54;;;;;;;13.55;5.65;;;;;;;-0.62;100.00;98559.63;4533131;31;20561;-72
2023/01/27 04:39:22;;;;;;;13.55;5.90;;;;;;;-0.65;100.00;98558.94;4533163;31;20115;-72
2023/01/27 04:41:50;;;;;;;15.07;6.32;;;;;;;-0.72;100.00;98563.53;4533114;31;20075;-72
2023/01/27 04:44:20;;;;;;;12.50;5.43;;;;;;;-0.64;100.00;98555.47;4532888;31;20099;-72
2023/01/27 04:46:48;;;;;;;13.32;5.80;;;;;;;-0.58;100.00;98565.47;4533056;31;20431;-72
2023/01/27 04:49:15;;;;;;;13.32;5.87;;;;;;;-0.69;100.00;98568.53;4533183;31;20104;-73
2023/01/27 04:51:43;;;;;;;14.07;5.82;;;;;;;-0.78;100.00;98574.09;4533189;31;20111;-73
2023/01/27 04:54:12;;;;;;;16.15;6.37;;;;;;;-0.76;100.00;98582.56;4533163;31;20116;-73
2023/01/27 04:56:48;;;;;;;16.80;6.43;;;;;;;-0.87;100.00;98577.09;4533252;31;20095;-72
2023/01/27 04:59:16;;;;;;;11.43;5.93;;;;;;;-0.88;100.00;98572.84;4531626;31;20110;-72
2023/01/27 05:01:43;;;;;;;17.70;6.10;;;;;;;-0.98;100.00;98587.88;4533391;31;20122;-72
2023/01/27 05:04:10;;;;;;;11.88;6.62;;;;;;;-1.02;100.00;98587.16;4532856;31;20814;-73
2023/01/27 05:06:37;;;;;;;14.43;6.40;;;;;;;-1.11;100.00;98583.25;4532978;31;20468;-73
2023/01/27 05:09:04;;;;;;;13.57;5.82;;;;;;;-1.08;100.00;98590.00;4532552;31;20146;-72
2023/01/27 05:11:32;;;;;;;16.67;7.05;;;;;;;-1.06;100.00;98577.91;4532828;31;20128;-73
2023/01/27 05:14:00;;;;;;;17.58;6.22;;;;;;;-1.16;100.00;98585.22;4532637;31;20416;-73
2023/01/27 05:16:27;;;;;;;11.10;6.18;;;;;;;-1.14;100.00;98583.41;4532823;31;20147;-72
2023/01/27 05:18:55;;;;;;;12.37;5.93;;;;;;;-1.15;100.00;98581.75;4532772;31;20096;-73
2023/01/27 05:21:27;;;;;;;16.33;6.57;;;;;;;-1.14;100.00;98582.56;4532936;31;20166;-74
2023/01/27 05:23:54;;;;;;;12.68;5.80;;;;;;;-1.23;100.00;98590.69;4523046;31;20140;-73
2023/01/27 05:26:24;;;;;;;13.73;6.07;;;;;;;-1.20;100.00;98578.53;4526586;31;20476;-74
2023/01/27 05:28:52;;;;;;;14.75;6.30;;;;;;;-1.12;100.00;98580.75;4530900;31;20150;-73
2023/01/27 05:31:22;;;;;;;15.00;5.85;;;;;;;-1.18;100.00;98579.31;4531213;31;20110;-74
2023/01/27 05:33:51;;;;;;;14.95;5.95;;;;;;;-1.16;100.00;98580.06;4530899;31;20464;-73
2023/01/27 05:36:21;;;;;;;11.48;5.70;;;;;;;-1.22;100.00;98575.22;4530540;31;20122;-74
2023/01/27 05:38:49;;;;;;;13.18;6.00;;;;;;;-1.21;100.00;98569.19;4530975;31;20614;-74
2023/01/27 05:41:17;;;;;;;14.60;5.55;;;;;;;-1.18;100.00;98574.19;4531639;31;20482;-74
2023/01/27 05:43:49;;;;;;;13.23;5.40;;;;;;;-1.26;100.00;98579.66;4519524;31;20131;-73
2023/01/27 05:46:18;;;;;;;13.32;6.05;;;;;;;-1.23;100.00;98580.41;4514660;31;20461;-74
2023/01/27 05:48:52;;;;;;;12.85;6.07;;;;;;;-1.23;100.00;98576.09;4514703;31;20092;-74
2023/01/27 05:51:21;;;;;;;14.55;6.40;;;;;;;-1.21;100.00;98581.19;4516312;31;20083;-74
2023/01/27 05:53:48;;;;;;;12.70;5.32;;;;;;;-1.26;100.00;98579.66;4528811;31;20466;-74
2023/01/27 05:56:17;;;;;;;14.35;6.70;;;;;;;-1.34;100.00;98592.00;4532602;31;20087;-74
2023/01/27 05:58:45;;;;;;;12.27;5.50;;;;;;;-1.38;100.00;98580.19;4532261;31;20105;-73
2023/01/27 06:01:13;;;;;;;11.50;4.80;;;;;;;-1.39;100.00;98583.66;4518193;31;20121;-73
2023/01/27 06:03:41;;;;;;;16.77;5.35;;;;;;;-1.39;100.00;98582.81;4521463;31;20491;-73
2023/01/27 06:06:09;;;;;;;12.98;5.85;;;;;;;-1.37;100.00;98586.16;4504718;31;20179;-74
2023/01/27 06:08:37;;;;;;;11.70;4.78;;;;;;;-1.33;100.00;98583.41;4501399;31;20596;-73
2023/01/27 06:11:05;;;;;;;13.75;5.87;;;;;;;-1.43;100.00;98588.09;4518354;31;20431;-73
2023/01/27 06:13:37;;;;;;;9.45;5.15;;;;;;;-1.48;100.00;98590.03;4514635;31;20146;-73
2023/01/27 06:16:10;;;;;;;13.40;5.75;;;;;;;-1.51;100.00;98584.19;4519983;31;20123;-73
2023/01/27 06:18:38;;;;;;;14.43;5.70;;;;;;;-1.52;100.00;98578.22;4521722;31;20156;-73
2023/01/27 06:21:07;;;;;;;13.30;6.28;;;;;;;-1.54;100.00;98580.03;4520781;31;20080;-73
2023/01/27 06:23:35;;;;;;;18.80;5.25;;;;;;;-1.48;100.00;98574.63;4515682;31;20091;-76
2023/01/27 06:26:06;;;;;;;12.57;5.07;;;;;;;-1.47;100.00;98581.44;4516279;31;20100;-76
2023/01/27 06:28:33;;;;;;;13.07;5.10;;;;;;;-1.48;100.00;98568.66;4512345;31;20489;-75
2023/01/27 06:31:08;;;;;;;10.60;5.25;;;;;;;-1.38;100.00;98580.19;4523549;31;20088;-78
2023/01/27 06:33:35;;;;;;;12.07;5.25;;;;;;;-1.39;100.00;98583.66;4517639;31;20350;-77
2023/01/27 06:36:05;;;;;;;8.75;4.60;;;;;;;-1.36;100.00;98578.41;4522773;31;20104;-76
2023/01/27 06:38:32;;;;;;;12.02;4.93;;;;;;;-1.37;100.00;98581.84;4519688;31;20084;-73
2023/01/27 06:41:00;;;;;;;11.32;5.18;;;;;;;-1.37;100.00;98587.00;4526829;31;20444;-77
2023/01/27 06:43:27;;;;;;;10.27;5.18;;;;;;;-1.34;100.00;98579.16;4525457;31;20171;-76
2023/01/27 06:45:56;;;;;;;17.30;5.53;;;;;;;-1.37;100.00;98586.16;4519483;31;20163;-79
2023/01/27 06:48:26;;;;;;;8.10;3.75;;;;;;;-1.32;100.00;98585.06;4514030;31;20134;-78
2023/01/27 06:50:54;;;;;;;12.18;5.00;;;;;;;-1.18;100.00;98587.03;4516906;31;20121;-80
2023/01/27 06:53:22;;;;;;;8.48;4.35;;;;;;;-1.04;100.00;98588.16;4521501;31;20087;-78
2023/01/27 06:55:57;;;;;;;9.60;4.22;;;;;;;-0.95;100.00;98592.88;4530389;31;20099;-80
2023/01/27 06:58:25;;;;;;;11.68;3.72;;;;;;;-0.95;100.00;98595.47;4530742;31;20079;-80
2023/01/27 07:00:53;;;;;;;10.07;3.92;;;;;;;-0.88;100.00;98593.44;4527824;31;20151;-76
2023/01/27 07:03:20;;;;;;;9.48;4.00;;;;;;;-0.90;99.98;98589.19;4518374;31;20107;-77
2023/01/27 07:05:47;;;;;;;10.40;4.28;;;;;;;-0.88;98.59;98588.28;4520132;31;20107;-75
2023/01/27 07:08:15;;;;;;;9.27;3.72;;;;;;;-0.77;98.87;98591.22;4523661;31;20103;-77
2023/01/27 07:10:42;;;;;;;11.20;4.75;;;;;;;-0.74;96.99;98591.06;4521137;31;20535;-77
2023/01/27 07:13:11;;;;;;;7.35;3.37;;;;;;;-0.72;96.62;98595.22;4521502;31;20441;-73
2023/01/27 07:15:39;;;;;;;9.88;4.32;;;;;;;-0.69;95.10;98589.13;4501306;31;20488;-77
2023/01/27 07:18:06;;;;;;;11.00;4.60;;;;;;;-0.53;95.70;98594.38;4516992;31;20155;-77
2023/01/27 07:20:33;;;;;;;12.77;4.40;;;;;;;-0.50;97.04;98596.81;4515275;31;20099;-75
2023/01/27 07:23:04;;;;;;;12.70;5.70;;;;;;;-0.42;98.07;98592.13;4521162;31;20103;-77
2023/01/27 07:25:33;;;;;;;11.45;4.80;;;;;;;-0.33;100.00;98596.03;4529864;31;20134;-79
2023/01/27 07:28:01;;;;;;;11.43;5.43;;;;;;;-0.30;100.00;98595.88;4529968;31;20146;-78
2023/01/27 07:30:29;;;;;;;12.05;5.62;;;;;;;-0.15;100.00;98599.47;4529454;31;20099;-73
2023/01/27 07:33:06;;;;;;;14.10;5.30;;;;;;;-0.05;97.86;98599.84;4520574;31;20442;-75
2023/01/27 07:35:35;;;;;;;11.25;4.93;;;;;;;-0.10;96.82;98601.81;4515859;31;20166;-77
2023/01/27 07:38:03;;;;;;;11.05;4.60;;;;;;;-0.12;96.70;98601.88;4521545;31;20162;-76
2023/01/27 07:40:30;;;;;;;13.57;4.78;;;;;;;-0.11;97.94;98600.13;4518654;31;20476;-81
2023/01/27 07:42:58;;;;;;;14.90;5.18;;;;;;;0.02;98.11;98606.34;4530984;31;20099;-75
2023/01/27 07:45:27;;;;;;;11.98;5.20;;;;;;;-0.04;97.43;98604.09;4531194;31;20167;-76
2023/01/27 07:48:02;;;;;;;11.90;5.03;;;;;;;0.02;97.13;98603.78;4522911;31;20139;-78
2023/01/27 07:50:30;;;;;;;15.07;5.82;;;;;;;-0.03;97.83;98596.28;4519860;31;20531;-77
2023/01/27 07:52:59;;;;;;;19.48;7.45;;;;;;;0.04;98.41;98596.81;4526365;31;20095;-75
2023/01/27 07:55:27;;;;;;;20.02;7.97;;;;;;;0.05;100.00;98590.75;4518238;31;20607;-74
2023/01/27 07:57:55;;;;;;;18.00;6.28;;;;;;;-0.01;100.00;98585.91;4521650;31;20092;-75
2023/01/27 08:00:23;;;;;;;14.98;6.70;;;;;;;0.03;100.00;98587.44;4519716;31;20120;-74
2023/01/27 08:02:51;;;;;;;13.32;6.57;;;;;;;-0.07;100.00;98593.94;4521376;31;20108;-76
2023/01/27 08:05:22;;;;;;;20.58;9.70;;;;;;;-0.05;100.00;98589.53;4517228;31;20139;-74
2023/01/27 08:07:50;;;;;;;16.10;6.90;;;;;;;-0.06;100.00;98591.28;4515369;31;20178;-75
2023/01/27 08:10:19;;;;;;;19.83;7.62;;;;;;;0.02;100.00;98593.47;4516209;31;20377;-73
2023/01/27 08:12:46;;;;;;;15.13;6.75;;;;;;;0.04;100.00;98599.37;4517240;31;20380;-76
2023/01/27 08:15:13;;;;;;;13.43;6.45;;;;;;;0.21;100.00;98590.81;4520716;31;20100;-75
2023/01/27 08:17:52;;;;;;;14.73;7.03;;;;;;;0.18;100.00;98593.53;4515716;31;20833;-75
2023/01/27 08:20:19;;;;;;;13.05;5.93;;;;;;;0.22;100.00;98592.50;4525990;31;20103;-77
2023/01/27 08:22:46;;;;;;;9.95;4.90;;;;;;;0.04;100.00;98599.37;4524143;31;20099;-79
2023/01/27 08:25:14;;;;;;;15.20;6.55;;;;;;;0.15;100.00;98596.28;4522249;31;20091;-79
2023/01/27 08:27:41;;;;;;;14.93;6.47;;;;;;;0.14;100.00;98604.94;4519182;31;20163;-81
2023/01/27 08:30:09;;;;;;;19.90;7.97;;;;;;;0.18;100.00;98606.44;4522419;31;20155;-77
2023/01/27 08:32:37;;;;;;;16.87;7.18;;;;;;;0.21;100.00;98600.28;4508182;31;20391;-82
2023/01/27 08:35:04;;;;;;;16.83;6.43;;;;;;;0.23;100.00;98598.47;4518255;31;20121;-75
2023/01/27 08:37:31;;;;;;;20.30;7.55;;;;;;;0.15;100.00;98607.44;4523008;31;20092;-76
2023/01/27 08:39:58;;;;;;;15.93;6.82;;;;;;;0.33;100.00;98599.69;4521353;31;20099;-76
2023/01/27 08:42:25;;;;;;;19.02;7.35;;;;;;;0.29;100.00;98601.59;4519456;31;20532;-77
2023/01/27 08:44:52;;;;;;;15.95;7.60;;;;;;;0.43;100.00;98598.31;4516616;31;20107;-75
2023/01/27 08:47:20;;;;;;;15.45;6.75;;;;;;;0.38;100.00;98602.88;4518342;31;20159;-78
2023/01/27 08:49:47;;;;;;;17.33;6.68;;;;;;;0.52;100.00;98605.56;4525033;31;20106;-81
2023/01/27 08:52:14;;;;;;;14.68;6.15;;;;;;;0.57;100.00;98612.25;4514084;31;179061;-77
2023/01/27 08:54:41;;;;;;;13.90;6.80;;;;;;;0.51;100.00;98606.47;4519284;31;20155;-74
2023/01/27 08:57:08;;;;;;;16.23;7.22;;;;;;;0.57;100.00;98607.09;4513305;31;20114;-75
2023/01/27 08:59:36;;;;;;;11.82;5.87;;;;;;;0.43;100.00;98615.53;4518116;31;20155;-77
2023/01/27 09:02:03;;;;;;;13.35;6.47;;;;;;;0.41;100.00;98607.88;4518501;31;20092;-76
2023/01/27 09:04:30;;;;;;;15.60;6.40;;;;;;;0.55;100.00;98616.66;4524569;31;20142;-76
2023/01/27 09:06:57;;;;;;;12.70;6.05;;;;;;;0.62;100.00;98610.25;4523896;31;20088;-75
2023/01/27 09:09:24;;;;;;;10.52;5.72;;;;;;;0.75;100.00;98615.63;4518626;31;20189;-74
2023/01/27 09:11:51;;;;;;;18.17;7.47;;;;;;;0.76;100.00;98612.97;4523311;31;20515;-75
2023/01/27 09:14:19;;;;;;;12.05;6.45;;;;;;;0.84;100.00;98621.13;4531963;31;20163;-76
2023/01/27 09:16:46;;;;;;;14.75;6.32;;;;;;;0.82;100.00;98617.81;4519387;31;20171;-76
2023/01/27 09:19:15;;;;;;;14.45;6.43;;;;;;;0.84;98.34;98621.13;4524762;31;20099;-76
2023/01/27 09:21:43;;;;;;;17.40;7.18;;;;;;;0.80;99.06;98614.50;4530270;31;20103;-76
2023/01/27 09:24:14;;;;;;;18.37;6.57;;;;;;;0.82;100.00;98624.72;4530640;31;20103;-74
2023/01/27 09:26:41;;;;;;;15.88;7.15;;;;;;;0.75;98.69;98626.78;4529396;31;20511;-73
2023/01/27 09:29:08;;;;;;;17.83;6.97;;;;;;;0.75;99.69;98624.19;4522885;31;20150;-77
2023/01/27 09:31:35;;;;;;;20.17;6.93;;;;;;;0.77;98.56;98630.09;4513686;31;20756;-74
2023/01/27 09:34:06;;;;;;;15.65;7.32;;;;;;;0.83;99.02;98629.81;4505644;31;20154;-76
2023/01/27 09:36:38;;;;;;;12.65;6.43;;;;;;;0.97;99.07;98635.97;4529151;31;20512;-76
2023/01/27 09:39:07;;;;;;;13.88;6.53;;;;;;;0.99;97.86;98634.16;4524537;31;20123;-74
2023/01/27 09:42:08;;;;;;;11.57;5.40;;;;;;;1.12;98.09;98635.19;4518170;31;20130;-75
2023/01/27 09:44:35;;;;;;;13.68;5.75;;;;;;;1.10;92.60;98631.00;4519641;31;20468;-74
2023/01/27 09:47:19;;;;;;;13.45;5.78;;;;;;;1.14;94.48;98637.69;4525519;31;20087;-74
2023/01/27 09:50:06;;;;;;;13.65;5.70;;;;;;;0.99;95.47;98634.16;4512813;31;20424;-74
2023/01/27 09:53:01;;;;;;;14.38;6.15;;;;;;;1.17;95.91;98627.19;4519077;31;20122;-74
2023/01/27 09:55:45;;;;;;;8.68;4.85;;;;;;;1.02;95.70;98631.41;4522062;31;20532;-77
2023/01/27 09:58:27;;;;;;;11.15;4.93;;;;;;;1.07;97.07;98632.00;4515679;31;20095;-78
2023/01/27 10:01:01;;;;;;;12.70;5.00;;;;;;;0.93;97.12;98629.31;4513241;31;20488;-78
2023/01/27 10:03:51;;;;;;;10.02;4.62;;;;;;;1.01;97.90;98630.56;4510221;31;20484;-76
2023/01/27 10:06:50;;;;;;;16.65;5.07;;;;;;;0.81;99.48;98630.78;4523293;31;20103;-78
2023/01/27 10:09:34;;;;;;;11.20;4.75;;;;;;;0.82;100.00;98617.81;4522419;31;20421;-79
2023/01/27 10:12:19;;;;;;;11.07;4.95;;;;;;;0.84;100.00;98621.13;4500300;31;20496;-79
2023/01/27 10:15:14;;;;;;;11.68;5.43;;;;;;;0.82;100.00;98628.13;4526665;31;20111;-79
2023/01/27 10:17:54;;;;;;;;;;;;;;;1.05;100.00;98636.41;4518267;31;20115;-78
2023/01/27 10:20:45;;;;;;;11.10;4.43;;;;;;;0.91;100.00;98620.81;4518327;31;20001;-78
2023/01/27 10:23:32;;;;;;;12.40;4.32;;;;;;;0.76;100.00;98623.28;4508268;31;20092;-78
2023/01/27 10:26:27;;;;;;;10.57;4.55;;;;;;;0.64;100.00;98614.44;4518874;31;20123;-78
2023/01/27 10:29:25;;;;;;;10.07;5.00;;;;;;;0.66;100.00;98611.78;4521774;31;20130;-78
2023/01/27 10:32:00;;;;;;;12.68;5.57;;;;;;;0.49;100.00;98607.47;4522199;31;20105;-77
2023/01/27 10:34:36;;;;;;;11.18;5.05;;;;;;;0.39;100.00;98614.84;4526684;31;20131;-77
2023/01/27 10:37:16;;;;;;;9.68;3.85;;;;;;;0.46;100.00;98616.19;4506624;31;20103;-78
2023/01/27 10:40:07;;;;;;;10.43;4.72;;;;;;;0.66;100.00;98614.34;4522714;31;20143;-77
2023/01/27 10:42:40;;;;;;;14.02;5.55;;;;;;;0.51;100.00;98616.78;4502824;31;20130;-77
2023/01/27 10:45:18;;;;;;;18.55;6.82;;;;;;;0.52;100.00;98613.31;4509387;31;20095;-76
2023/01/27 10:47:52;;;;;;;13.35;5.85;;;;;;;0.44;100.00;98615.44;4502299;31;20095;-77
2023/01/27 10:50:39;;;;;;;17.80;6.28;;;;;;;0.57;100.00;98605.34;4514761;31;20122;-77
2023/01/27 10:53:43;;;;;;;9.90;4.80;;;;;;;0.82;100.00;98601.53;4508549;31;20192;-76
2023/01/27 10:56:18;;;;;;;9.15;4.55;;;;;;;0.71;100.00;98607.19;4432079;32;20522;-74
2023/01/27 10:59:27;;;;;;;10.27;4.78;;;;;;;0.77;100.00;98606.87;4441519;32;20121;-76
2023/01/27 11:01:59;;;;;;;17.75;5.80;;;;;;;0.63;100.00;98591.31;4388772;32;20932;-75
2023/01/27 11:04:38;;;;;;;13.57;5.70;;;;;;;0.41;100.00;98602.72;4386876;32;20094;-76
2023/01/27 11:07:05;;;;;;;14.55;5.75;;;;;;;0.32;100.00;98601.44;4384444;32;20090;-76
2023/01/27 11:09:36;;;;;;;9.45;4.62;;;;;;;0.29;100.00;98595.62;4384719;32;20172;-72
2023/01/27 11:12:13;;;;;;;16.02;6.78;;;;;;;0.51;100.00;98590.19;4384826;32;20128;-75
2023/01/27 11:14:50;;;;;;;16.67;5.35;;;;;;;0.35;100.00;98588.41;4387147;32;20118;-75
2023/01/27 11:17:32;;;;;;;11.55;5.05;;;;;;;0.38;100.00;98586.56;4386345;32;20135;-75
2023/01/27 11:20:11;;;;;;;10.75;3.95;;;;;;;0.42;100.00;98591.47;4386012;32;20255;-75
2023/01/27 11:23:20;;;;;;;12.65;5.35;;;;;;;0.52;100.00;98584.97;4385786;32;20525;-77
2023/01/27 11:25:52;;;;;;;11.93;5.12;;;;;;;0.32;100.00;98588.56;4387798;32;20571;-75
2023/01/27 11:28:46;;;;;;;7.10;3.45;;;;;;;0.52;100.00;98577.22;4386755;32;20113;-73
2023/01/27 11:31:14;;;;;;;16.95;6.95;;;;;;;0.46;100.00;98585.28;4391476;32;20184;-72
2023/01/27 11:34:20;;;;;;;28.58;10.13;;;;;;;0.46;100.00;98585.28;4454343;32;20121;-73
2023/01/27 11:36:49;;;;;;;26.35;8.68;;;;;;;0.32;100.00;98583.41;4412814;32;20114;-74
2023/01/27 11:39:17;;;;;;;39.65;11.45;;;;;;;0.44;100.00;98578.53;4429534;32;20159;-75
2023/01/27 11:41:52;;;;;;;18.05;8.05;;;;;;;0.34;100.00;98575.59;4438112;32;20240;-77
2023/01/27 11:44:28;;;;;;;13.25;6.87;;;;;;;0.32;100.00;98575.66;4432788;32;20135;-75
2023/01/27 11:46:56;;;;;;;15.77;5.62;;;;;;;0.27;100.00;98564.78;4429990;32;20101;-74
2023/01/27 11:49:29;;;;;;;16.80;6.20;;;;;;;0.10;100.00;98563.00;4441380;32;20866;-73
2023/01/27 11:52:04;;;;;;;16.75;6.15;;;;;;;0.24;100.00;98558.94;4430632;32;20176;-74
2023/01/27 11:54:40;;;;;;;12.98;6.72;;;;;;;0.32;100.00;98560.22;4443123;32;20459;-74
2023/01/27 11:57:19;;;;;;;10.38;4.85;;;;;;;0.49;100.00;98555.94;4435047;32;20132;-75
2023/01/27 11:59:50;;;;;;;8.73;4.50;;;;;;;0.44;100.00;98551.03;4438262;32;20518;-75
2023/01/27 12:02:44;;;;;;;9.00;4.03;;;;;;;0.43;100.00;98536.47;4431122;32;20637;-73
2023/01/27 12:05:14;;;;;;;15.20;6.07;;;;;;;0.30;100.00;98532.84;4432712;32;20273;-74
2023/01/27 12:07:54;;;;;;;17.40;6.57;;;;;;;0.50;100.00;98531.81;4429469;32;20085;-73
2023/01/27 12:10:25;;;;;;;15.65;6.03;;;;;;;0.68;100.00;98535.19;4448792;32;20157;-74
2023/01/27 12:12:52;;;;;;;15.45;6.37;;;;;;;0.91;100.00;98527.97;4457692;31;20166;-73
2023/01/27 12:15:20;;;;;;;20.40;7.32;;;;;;;0.99;100.00;98521.50;4523427;31;20095;-73